Time;durP1;ratioP1;P1;durP2;ratioP2;P2;SDS_P1;SDS_P2;PMS_P1;PMS_P2;Temp;Humidity;BMP_temperature;BMP_pressure;BME280_temperature;BME280_humidity;BME280_pressure;Samples;Min_cycle;Max_cycle;Signal;HPM_P1;HPM_P2
2024/04/17 00:01:33;;;;;;;24.53;8.00;;;6.50;99.90;;;;;;5406969;26;20319;-75
2024/04/17 00:03:58;;;;;;;14.03;9.17;;;6.40;99.90;;;;;;5406945;26;20213;-75
2024/04/17 00:06:25;;;;;;;12.43;7.80;;;6.30;99.90;;;;;;5407243;26;20216;-75
2024/04/17 00:08:51;;;;;;;19.43;8.50;;;6.30;99.90;;;;;;5406717;26;20799;-75
2024/04/17 00:11:16;;;;;;;17.37;7.67;;;6.20;99.90;;;;;;5406851;26;20225;-75
2024/04/17 00:13:42;;;;;;;25.70;7.77;;;6.10;99.90;;;;;;5406877;26;20699;-75
2024/04/17 00:16:07;;;;;;;21.60;8.40;;;6.10;99.90;;;;;;5407134;26;20598;-74
2024/04/17 00:18:33;;;;;;;19.13;8.33;;;6.00;99.90;;;;;;5406457;26;20221;-75
2024/04/17 00:20:59;;;;;;;15.73;7.77;;;6.00;99.90;;;;;;5406494;26;20275;-75
2024/04/17 00:23:25;;;;;;;17.47;8.10;;;6.00;99.90;;;;;;5406644;26;20260;-75
2024/04/17 00:25:51;;;;;;;20.40;8.20;;;5.90;99.90;;;;;;5406926;26;20205;-75
2024/04/17 00:28:17;;;;;;;22.47;8.60;;;5.90;99.90;;;;;;5406694;26;20213;-75
2024/04/17 00:30:43;;;;;;;14.30;8.40;;;5.80;99.90;;;;;;5406666;26;20263;-75
2024/04/17 00:33:09;;;;;;;17.60;8.33;;;5.70;99.90;;;;;;5407387;26;20235;-75
2024/04/17 00:35:35;;;;;;;16.00;8.63;;;5.70;99.90;;;;;;5406847;26;20284;-73
2024/04/17 00:38:00;;;;;;;17.13;8.77;;;5.70;99.90;;;;;;5406568;26;20255;-74
2024/04/17 00:40:30;;;;;;;24.03;8.47;;;5.60;99.90;;;;;;5406713;26;20229;-74
2024/04/17 00:42:55;;;;;;;18.17;8.47;;;5.60;99.90;;;;;;5406575;26;20576;-74
2024/04/17 00:45:21;;;;;;;12.07;7.73;;;5.50;99.90;;;;;;5406864;26;20212;-73
2024/04/17 00:47:46;;;;;;;20.90;8.57;;;5.50;99.90;;;;;;5406927;26;20248;-73
2024/04/17 00:50:13;;;;;;;18.43;9.23;;;5.50;99.90;;;;;;5407498;26;20224;-75
2024/04/17 00:52:39;;;;;;;17.10;8.27;;;5.50;99.90;;;;;;5407268;26;20224;-74
2024/04/17 00:55:06;;;;;;;18.20;8.67;;;5.40;99.90;;;;;;5407661;26;20224;-74
2024/04/17 00:57:34;;;;;;;21.93;8.27;;;5.40;99.90;;;;;;5408250;26;20220;-74
2024/04/17 01:00:03;;;;;;;18.53;8.77;;;5.40;99.90;;;;;;5407488;26;20339;-74
2024/04/17 01:02:29;;;;;;;19.33;8.97;;;5.30;99.90;;;;;;5407549;26;20735;-74
2024/04/17 01:04:54;;;;;;;19.10;8.83;;;5.30;99.90;;;;;;5407434;26;20256;-73
2024/04/17 01:07:20;;;;;;;18.40;9.73;;;5.20;99.90;;;;;;5407509;26;20220;-74
2024/04/17 01:09:45;;;;;;;18.50;8.37;;;5.20;99.90;;;;;;5406911;26;20216;-74
2024/04/17 01:12:11;;;;;;;17.13;9.10;;;5.20;99.90;;;;;;5406587;26;20237;-74
2024/04/17 01:14:37;;;;;;;20.50;9.00;;;5.10;99.90;;;;;;5406948;26;20344;-73
2024/04/17 01:17:02;;;;;;;20.10;8.27;;;5.10;99.90;;;;;;5406780;26;20216;-74
2024/04/17 01:19:29;;;;;;;21.77;9.23;;;5.00;99.90;;;;;;5407087;26;20225;-74
2024/04/17 01:21:54;;;;;;;20.53;9.17;;;5.00;99.90;;;;;;5443529;26;20250;-74
2024/04/17 01:24:20;;;;;;;24.30;8.20;;;5.00;99.90;;;;;;5443446;26;20232;-74
2024/04/17 01:26:46;;;;;;;23.00;7.93;;;4.90;99.90;;;;;;5407195;26;20599;-74
2024/04/17 01:29:11;;;;;;;13.13;8.80;;;4.90;99.90;;;;;;5406593;26;20711;-74
2024/04/17 01:31:37;;;;;;;19.17;8.63;;;4.90;99.90;;;;;;5406671;26;20209;-74
2024/04/17 01:34:02;;;;;;;19.23;8.93;;;4.90;99.90;;;;;;5407043;26;20208;-74
2024/04/17 01:36:28;;;;;;;15.23;8.37;;;4.90;99.90;;;;;;5406515;26;20200;-74
2024/04/17 01:38:54;;;;;;;14.93;8.37;;;4.80;99.90;;;;;;5406704;26;20610;-74
2024/04/17 01:41:19;;;;;;;14.03;8.70;;;4.80;99.90;;;;;;5406188;26;20204;-74
2024/04/17 01:43:45;;;;;;;16.97;8.30;;;4.70;99.90;;;;;;5406426;26;20739;-74
2024/04/17 01:46:10;;;;;;;15.93;9.13;;;4.70;99.90;;;;;;5406006;26;20325;-73
2024/04/17 01:48:36;;;;;;;13.63;8.70;;;4.60;99.90;;;;;;5405751;26;20661;-73
2024/04/17 01:51:01;;;;;;;14.50;8.40;;;4.70;99.90;;;;;;5405831;26;20259;-73
2024/04/17 01:53:27;;;;;;;21.97;8.80;;;4.60;99.90;;;;;;5405803;26;20774;-73
2024/04/17 01:55:54;;;;;;;16.20;9.47;;;4.50;99.90;;;;;;5405511;26;20267;-73
2024/04/17 01:58:19;;;;;;;23.13;8.90;;;4.50;99.90;;;;;;5405615;26;20614;-74
2024/04/17 02:00:45;;;;;;;20.23;10.13;;;4.60;99.90;;;;;;5405745;26;20224;-74
2024/04/17 02:03:10;;;;;;;21.70;9.57;;;4.50;99.90;;;;;;5405764;26;20595;-74
2024/04/17 02:05:36;;;;;;;16.20;9.03;;;4.50;99.90;;;;;;5405481;26;20288;-74
2024/04/17 02:08:01;;;;;;;18.30;9.70;;;4.50;99.90;;;;;;5406055;26;20216;-74
2024/04/17 02:10:27;;;;;;;21.37;8.87;;;4.50;99.90;;;;;;5405089;26;20355;-74
2024/04/17 02:12:52;;;;;;;15.70;9.13;;;4.50;99.90;;;;;;5405322;26;20213;-74
2024/04/17 02:15:18;;;;;;;11.40;9.43;;;4.50;99.90;;;;;;5405549;26;20710;-74
2024/04/17 02:17:44;;;;;;;17.33;10.90;;;4.40;99.90;;;;;;5405504;26;20209;-73
2024/04/17 02:20:09;;;;;;;20.70;10.97;;;4.40;99.90;;;;;;5405558;26;20573;-73
2024/04/17 02:22:35;;;;;;;24.73;10.77;;;4.40;99.90;;;;;;5404925;26;20221;-73
2024/04/17 02:25:00;;;;;;;26.57;12.00;;;4.40;99.90;;;;;;5405415;26;20213;-73
2024/04/17 02:27:26;;;;;;;26.40;11.77;;;4.40;99.90;;;;;;5406157;26;20694;-73
2024/04/17 02:29:52;;;;;;;25.73;12.07;;;4.40;99.90;;;;;;5405550;26;20225;-73
2024/04/17 02:32:18;;;;;;;23.33;11.33;;;4.40;99.90;;;;;;5405918;26;20209;-73
2024/04/17 02:34:44;;;;;;;22.67;11.93;;;4.30;99.90;;;;;;5405636;26;20657;-73
2024/04/17 02:37:09;;;;;;;27.30;12.47;;;4.30;99.90;;;;;;5405753;26;20261;-73
2024/04/17 02:39:36;;;;;;;22.57;12.23;;;4.30;99.90;;;;;;5405404;26;20220;-73
2024/04/17 02:42:01;;;;;;;26.57;11.53;;;4.30;99.90;;;;;;5405685;26;20216;-73
2024/04/17 02:44:27;;;;;;;20.63;12.30;;;4.30;99.90;;;;;;5405385;26;20675;-74
2024/04/17 02:46:52;;;;;;;19.90;11.00;;;4.30;99.90;;;;;;5405596;26;20213;-73
2024/04/17 02:49:18;;;;;;;21.03;11.87;;;4.30;99.90;;;;;;5405010;26;20735;-74
2024/04/17 02:51:45;;;;;;;29.40;13.73;;;4.20;99.90;;;;;;5405707;26;20224;-74
2024/04/17 02:54:11;;;;;;;28.27;12.53;;;4.20;99.90;;;;;;5405810;26;20209;-74
2024/04/17 02:56:36;;;;;;;21.87;12.73;;;4.20;99.90;;;;;;5405624;26;20255;-74
2024/04/17 02:59:02;;;;;;;28.10;13.27;;;4.10;99.90;;;;;;5405257;26;20292;-74
2024/04/17 03:01:27;;;;;;;24.27;12.70;;;4.10;99.90;;;;;;5405290;26;20208;-74
2024/04/17 03:03:53;;;;;;;27.17;12.43;;;4.10;99.90;;;;;;5405248;26;20271;-74
2024/04/17 03:06:19;;;;;;;27.03;13.97;;;4.10;99.90;;;;;;5405288;26;20224;-74
2024/04/17 03:08:46;;;;;;;21.97;12.77;;;4.10;99.90;;;;;;5404984;26;20208;-73
2024/04/17 03:11:12;;;;;;;27.53;13.30;;;4.10;99.90;;;;;;5404746;26;20209;-74
2024/04/17 03:13:37;;;;;;;25.07;12.77;;;4.00;99.90;;;;;;5441534;26;20220;-74
2024/04/17 03:16:03;;;;;;;25.43;13.40;;;4.00;99.90;;;;;;5405377;26;20217;-74
2024/04/17 03:18:29;;;;;;;20.20;12.90;;;4.00;99.90;;;;;;5404744;26;20216;-74
2024/04/17 03:21:04;;;;;;;45.93;13.33;;;4.00;99.90;;;;;;5404731;26;20707;-74
2024/04/17 03:23:30;;;;;;;26.53;13.43;;;4.00;99.90;;;;;;5404982;26;20255;-74
2024/04/17 03:25:59;;;;;;;27.27;12.33;;;4.00;99.90;;;;;;5404979;26;20217;-74
2024/04/17 03:28:25;;;;;;;27.33;13.03;;;4.00;99.90;;;;;;5404871;26;20255;-73
2024/04/17 03:30:51;;;;;;;15.13;12.40;;;4.00;99.90;;;;;;5404477;26;20626;-73
2024/04/17 03:33:16;;;;;;;25.40;12.80;;;4.00;99.90;;;;;;5404922;26;20224;-73
2024/04/17 03:35:42;;;;;;;22.97;12.57;;;4.00;99.90;;;;;;5411019;26;20276;-73
2024/04/17 03:38:08;;;;;;;21.83;13.30;;;4.00;99.90;;;;;;5412420;26;20264;-73
2024/04/17 03:40:33;;;;;;;19.23;12.30;;;4.00;99.90;;;;;;5412458;26;20224;-73
2024/04/17 03:42:59;;;;;;;21.23;12.37;;;3.90;99.90;;;;;;5413005;26;20247;-74
2024/04/17 03:45:25;;;;;;;26.20;12.37;;;4.00;99.90;;;;;;5412107;26;20224;-73
2024/04/17 03:47:50;;;;;;;25.90;13.13;;;3.90;99.90;;;;;;5412029;26;20687;-73
2024/04/17 03:50:16;;;;;;;24.63;12.17;;;3.90;99.90;;;;;;5411868;26;20216;-73
2024/04/17 03:52:42;;;;;;;23.13;12.37;;;3.90;99.90;;;;;;5412204;26;20308;-73
2024/04/17 03:55:07;;;;;;;24.93;13.50;;;3.90;99.90;;;;;;5411841;26;20239;-73
2024/04/17 03:57:33;;;;;;;24.67;13.07;;;3.90;99.90;;;;;;5412088;26;20707;-73
2024/04/17 03:59:58;;;;;;;26.00;12.97;;;3.90;99.90;;;;;;5411318;26;20301;-73
2024/04/17 04:02:24;;;;;;;30.60;12.37;;;3.90;99.90;;;;;;5411980;26;20595;-74
2024/04/17 04:04:50;;;;;;;21.07;11.33;;;3.90;99.90;;;;;;5411606;26;20614;-73
2024/04/17 04:07:16;;;;;;;25.63;11.80;;;3.90;99.90;;;;;;5411839;26;20315;-74
2024/04/17 04:09:41;;;;;;;20.03;11.30;;;3.80;99.90;;;;;;5411317;26;20266;-73
2024/04/17 04:12:07;;;;;;;15.47;11.07;;;3.80;99.90;;;;;;5412234;26;20259;-73
2024/04/17 04:14:32;;;;;;;24.40;12.23;;;3.80;99.90;;;;;;5411373;26;20217;-74
2024/04/17 04:16:58;;;;;;;21.63;10.80;;;3.80;99.90;;;;;;5411783;26;20208;-74
2024/04/17 04:19:23;;;;;;;25.97;10.20;;;3.80;99.90;;;;;;5411639;26;20232;-74
2024/04/17 04:21:49;;;;;;;23.53;11.20;;;3.80;99.90;;;;;;5411712;26;20217;-74
2024/04/17 04:24:15;;;;;;;23.60;11.53;;;3.70;99.90;;;;;;5411684;26;20258;-74
2024/04/17 04:26:41;;;;;;;30.20;11.57;;;3.70;99.90;;;;;;5411521;26;20220;-74
2024/04/17 04:29:06;;;;;;;22.00;11.80;;;3.70;99.90;;;;;;5411306;26;20332;-74
2024/04/17 04:31:32;;;;;;;18.03;10.73;;;3.70;99.90;;;;;;5411100;26;20316;-73
2024/04/17 04:33:58;;;;;;;18.87;12.47;;;3.60;99.90;;;;;;5410274;26;20267;-74
2024/04/17 04:36:24;;;;;;;14.77;12.00;;;3.70;99.90;;;;;;5410981;26;20317;-73
2024/04/17 04:38:50;;;;;;;26.13;12.37;;;3.70;99.90;;;;;;5410943;26;20254;-72
2024/04/17 04:41:16;;;;;;;26.90;12.17;;;3.60;99.90;;;;;;5410653;26;20224;-73
2024/04/17 04:43:42;;;;;;;25.63;12.93;;;3.70;99.90;;;;;;5411219;26;20699;-73
2024/04/17 04:46:07;;;;;;;19.30;13.03;;;3.60;99.90;;;;;;5408717;26;20214;-74
2024/04/17 04:48:33;;;;;;;20.83;13.10;;;3.70;99.90;;;;;;5407430;26;20750;-74
2024/04/17 04:50:58;;;;;;;24.07;13.17;;;3.70;99.90;;;;;;5406545;26;20313;-74
2024/04/17 04:53:24;;;;;;;18.83;13.83;;;3.60;99.90;;;;;;5406547;26;20512;-73
2024/04/17 04:55:59;;;;;;;31.50;15.30;;;3.60;99.90;;;;;;5406626;26;20327;-73
2024/04/17 04:58:25;;;;;;;29.17;16.30;;;3.60;99.90;;;;;;5406680;26;20316;-74
2024/04/17 05:00:54;;;;;;;30.17;15.97;;;3.60;99.90;;;;;;5406364;26;20272;-73
2024/04/17 05:03:20;;;;;;;26.53;16.03;;;3.60;99.90;;;;;;5406249;26;20209;-73
2024/04/17 05:05:46;;;;;;;25.90;17.37;;;3.60;99.90;;;;;;5406715;26;20286;-73
2024/04/17 05:08:11;;;;;;;34.87;18.03;;;3.60;99.90;;;;;;5406493;26;20552;-73
2024/04/17 05:10:37;;;;;;;35.57;19.03;;;3.60;99.90;;;;;;5405986;26;20228;-73
2024/04/17 05:13:03;;;;;;;29.83;18.53;;;3.70;99.90;;;;;;5406699;26;20217;-72
2024/04/17 05:15:29;;;;;;;27.67;18.83;;;3.70;99.90;;;;;;5406302;26;20781;-73
2024/04/17 05:17:54;;;;;;;35.03;18.27;;;3.70;99.90;;;;;;5406112;26;20289;-72
2024/04/17 05:20:21;;;;;;;37.93;18.17;;;3.70;99.90;;;;;;5442730;26;20281;-72
2024/04/17 05:22:46;;;;;;;39.10;18.43;;;3.80;99.90;;;;;;5405895;26;20476;-72
2024/04/17 05:25:12;;;;;;;37.47;18.43;;;3.80;99.90;;;;;;5405995;26;20316;-73
2024/04/17 05:27:38;;;;;;;35.27;19.23;;;3.90;99.90;;;;;;5405938;26;20288;-73
2024/04/17 05:30:05;;;;;;;32.23;20.73;;;4.00;99.90;;;;;;5406011;26;20216;-73
2024/04/17 05:32:31;;;;;;;41.90;20.77;;;4.00;99.90;;;;;;5406261;26;20213;-72
2024/04/17 05:34:56;;;;;;;35.70;19.77;;;4.10;99.90;;;;;;5406313;26;20753;-73
2024/04/17 05:37:22;;;;;;;32.07;20.27;;;4.20;99.90;;;;;;5406725;26;20563;-73
2024/04/17 05:39:47;;;;;;;43.10;23.77;;;4.30;99.90;;;;;;5406255;26;20337;-73
2024/04/17 05:42:13;;;;;;;40.50;22.60;;;4.30;99.90;;;;;;5406183;26;20260;-74
2024/04/17 05:44:38;;;;;;;43.20;23.87;;;4.40;99.90;;;;;;5405713;26;20295;-73
2024/04/17 05:47:04;;;;;;;39.97;24.23;;;4.50;99.90;;;;;;5442720;26;20221;-74
2024/04/17 05:49:30;;;;;;;40.03;24.67;;;4.70;99.90;;;;;;5405522;26;20371;-73
2024/04/17 05:51:56;;;;;;;51.73;25.83;;;4.80;99.90;;;;;;5405725;26;20638;-73
2024/04/17 05:54:22;;;;;;;47.47;24.80;;;4.90;99.90;;;;;;5403895;26;20254;-73
2024/04/17 05:56:49;;;;;;;41.07;25.47;;;4.90;99.90;;;;;;5405170;26;20700;-73
2024/04/17 05:59:14;;;;;;;40.77;22.77;;;5.00;99.90;;;;;;5405207;26;20301;-73
2024/04/17 06:01:40;;;;;;;36.70;24.17;;;5.00;99.90;;;;;;5405658;26;20209;-72
2024/04/17 06:04:05;;;;;;;44.10;25.07;;;5.10;99.90;;;;;;5405446;26;20262;-73
2024/04/17 06:06:31;;;;;;;51.30;24.77;;;5.10;99.90;;;;;;5405617;26;20221;-73
2024/04/17 06:08:57;;;;;;;37.30;23.93;;;5.10;99.90;;;;;;5403660;26;20276;-73
2024/04/17 06:11:23;;;;;;;46.43;25.63;;;5.10;99.90;;;;;;5405406;26;20258;-73
2024/04/17 06:13:50;;;;;;;39.80;25.03;;;5.20;99.90;;;;;;5405563;26;20212;-73
2024/04/17 06:16:15;;;;;;;40.97;24.37;;;5.30;99.90;;;;;;5405488;26;20243;-73
2024/04/17 06:18:41;;;;;;;53.80;25.80;;;5.40;99.90;;;;;;5405132;26;20208;-74
2024/04/17 06:21:06;;;;;;;36.23;23.87;;;5.50;99.90;;;;;;5405010;26;20574;-73
2024/04/17 06:23:32;;;;;;;42.63;23.37;;;5.60;99.90;;;;;;5405159;26;20356;-74
2024/04/17 06:25:57;;;;;;;41.33;22.63;;;5.70;99.90;;;;;;5405385;26;20232;-73
2024/04/17 06:28:23;;;;;;;39.83;21.90;;;5.90;99.90;;;;;;5405237;26;20324;-74
2024/04/17 06:30:49;;;;;;;39.93;21.27;;;6.00;99.90;;;;;;5404396;26;20262;-74
2024/04/17 06:33:15;;;;;;;33.87;21.03;;;6.00;99.90;;;;;;5405492;26;20212;-74
2024/04/17 06:35:40;;;;;;;32.33;19.40;;;6.10;99.90;;;;;;5405078;26;20220;-73
2024/04/17 06:38:06;;;;;;;29.50;19.90;;;6.20;99.90;;;;;;5404958;26;20564;-74
2024/04/17 06:40:31;;;;;;;31.87;19.30;;;6.20;99.90;;;;;;5404748;26;20228;-74
2024/04/17 06:42:57;;;;;;;32.77;18.60;;;6.40;99.90;;;;;;5404879;26;20263;-73
2024/04/17 06:45:23;;;;;;;27.20;17.80;;;6.50;99.90;;;;;;5404592;26;20703;-74
2024/04/17 06:47:48;;;;;;;23.27;16.90;;;6.50;99.90;;;;;;5404270;26;20306;-74
2024/04/17 06:50:14;;;;;;;31.30;17.03;;;6.50;99.90;;;;;;5404797;26;20711;-74
2024/04/17 06:52:39;;;;;;;21.57;15.50;;;6.40;99.90;;;;;;5405057;26;20251;-74
2024/04/17 06:55:05;;;;;;;25.43;17.20;;;6.20;99.90;;;;;;5404698;26;20255;-74
2024/04/17 06:57:31;;;;;;;19.93;16.50;;;6.00;99.90;;;;;;5403158;26;20695;-74
2024/04/17 06:59:56;;;;;;;21.00;16.27;;;5.90;99.90;;;;;;5404898;26;20762;-74
2024/04/17 07:02:22;;;;;;;24.20;15.50;;;5.90;99.90;;;;;;5405116;26;20204;-75
2024/04/17 07:04:48;;;;;;;22.43;16.70;;;5.90;99.90;;;;;;5404924;26;20303;-74
2024/04/17 07:07:13;;;;;;;20.40;16.33;;;5.90;99.90;;;;;;5405023;26;20776;-74
2024/04/17 07:09:39;;;;;;;25.03;16.27;;;6.10;99.90;;;;;;5403815;26;20319;-74
2024/04/17 07:12:05;;;;;;;14.73;13.10;;;6.30;99.90;;;;;;5405024;26;20212;-74
2024/04/17 07:14:31;;;;;;;15.83;13.73;;;6.20;99.90;;;;;;5405017;26;20209;-74
2024/04/17 07:16:57;;;;;;;14.20;12.93;;;6.00;99.90;;;;;;5405145;26;20268;-74
2024/04/17 07:19:24;;;;;;;13.40;12.20;;;5.90;99.90;;;;;;5404597;26;20222;-75
2024/04/17 07:21:51;;;;;;;12.87;11.60;;;5.90;99.90;;;;;;5404314;26;20258;-74
2024/04/17 07:24:16;;;;;;;14.97;11.37;;;5.90;99.90;;;;;;5441400;26;20239;-75
2024/04/17 07:26:42;;;;;;;12.80;10.07;;;5.90;99.90;;;;;;5404442;26;20267;-74
2024/04/17 07:29:08;;;;;;;12.23;10.90;;;5.90;99.90;;;;;;5404850;26;20251;-75
2024/04/17 07:31:34;;;;;;;14.00;12.60;;;5.70;99.90;;;;;;5404459;26;20669;-74
2024/04/17 07:33:59;;;;;;;15.87;12.17;;;5.70;99.90;;;;;;5412007;26;20224;-74
2024/04/17 07:36:25;;;;;;;12.80;11.33;;;5.80;99.90;;;;;;5403491;26;20271;-73
2024/04/17 07:38:51;;;;;;;12.10;10.93;;;5.80;99.90;;;;;;5404971;26;20249;-73
2024/04/17 07:41:16;;;;;;;12.57;10.97;;;5.70;99.90;;;;;;5404404;26;20209;-72
2024/04/17 07:43:42;;;;;;;10.33;9.63;;;5.70;99.90;;;;;;5404830;26;20755;-72
2024/04/17 07:46:08;;;;;;;10.47;9.47;;;5.60;99.90;;;;;;5404792;26;20217;-74
2024/04/17 07:48:34;;;;;;;13.90;12.77;;;5.40;99.90;;;;;;5403702;26;20328;-74
2024/04/17 07:50:59;;;;;;;9.83;9.03;;;5.50;99.90;;;;;;5403341;26;20866;-76
2024/04/17 07:53:25;;;;;;;11.30;10.30;;;5.50;99.90;;;;;;5403965;26;20795;-74
2024/04/17 07:55:51;;;;;;;12.77;11.53;;;5.60;99.90;;;;;;5404101;26;20255;-74
2024/04/17 07:58:16;;;;;;;11.87;10.80;;;5.70;99.90;;;;;;5404054;26;20205;-74
2024/04/17 08:00:42;;;;;;;13.77;12.57;;;5.90;99.90;;;;;;5404219;26;20267;-74
2024/04/17 08:03:11;;;;;;;17.50;15.70;;;5.90;99.90;;;;;;5403919;26;20212;-74
2024/04/17 08:05:37;;;;;;;16.63;14.43;;;5.90;99.90;;;;;;5403780;26;20209;-75
2024/04/17 08:08:03;;;;;;;13.43;11.13;;;5.90;99.90;;;;;;5440161;26;20220;-74
2024/04/17 08:10:29;;;;;;;11.33;10.07;;;6.00;99.90;;;;;;5403747;26;20248;-74
2024/04/17 08:13:07;;;;;;;10.97;9.70;;;6.00;99.90;;;;;;5403632;26;20544;-73
2024/04/17 08:15:33;;;;;;;11.47;10.57;;;5.90;99.90;;;;;;5403788;26;20714;-75
2024/04/17 08:17:58;;;;;;;10.47;9.47;;;6.00;99.90;;;;;;5440276;26;20240;-75
2024/04/17 08:20:24;;;;;;;10.60;9.70;;;6.00;99.90;;;;;;5403775;26;20221;-74
2024/04/17 08:22:50;;;;;;;10.50;9.57;;;6.10;99.90;;;;;;5406438;26;20319;-76
2024/04/17 08:25:15;;;;;;;12.63;8.90;;;6.20;99.90;;;;;;5407048;26;20225;-75
2024/04/17 08:27:41;;;;;;;10.47;9.67;;;6.30;99.90;;;;;;5443212;26;20224;-75
2024/04/17 08:30:07;;;;;;;10.37;9.37;;;6.20;99.90;;;;;;5406647;26;20224;-75
2024/04/17 08:32:32;;;;;;;13.03;9.30;;;6.40;99.90;;;;;;5406802;26;20225;-75
2024/04/17 08:34:58;;;;;;;8.67;7.90;;;6.60;99.90;;;;;;5406602;26;20213;-75
2024/04/17 08:37:24;;;;;;;10.57;9.10;;;6.80;99.90;;;;;;5406372;26;20255;-76
2024/04/17 08:39:49;;;;;;;12.07;8.47;;;6.80;99.90;;;;;;5406523;26;20222;-75
2024/04/17 08:42:22;;;;;;;8.67;7.90;;;6.70;99.90;;;;;;5407145;26;20319;-75
2024/04/17 08:44:48;;;;;;;9.10;8.00;;;6.70;99.90;;;;;;5406625;26;20316;-76
2024/04/17 08:47:15;;;;;;;9.00;7.60;;;6.70;99.90;;;;;;5406080;26;20220;-75
2024/04/17 08:49:41;;;;;;;10.30;9.00;;;6.60;99.90;;;;;;5405726;26;20595;-75
2024/04/17 08:52:09;;;;;;;20.73;12.57;;;6.60;99.90;;;;;;5406264;26;20216;-75
2024/04/17 08:54:35;;;;;;;11.53;8.60;;;6.60;99.90;;;;;;5406944;26;20280;-74
2024/04/17 08:57:01;;;;;;;12.27;8.27;;;6.60;99.90;;;;;;5406491;26;20204;-74
2024/04/17 08:59:27;;;;;;;14.93;9.80;;;6.50;99.90;;;;;;5406216;26;20266;-74
2024/04/17 09:01:53;;;;;;;10.13;9.10;;;6.50;99.90;;;;;;5405862;26;20225;-74
2024/04/17 09:04:20;;;;;;;10.13;9.13;;;6.60;99.90;;;;;;5405969;26;20886;-74
2024/04/17 09:06:47;;;;;;;10.43;8.73;;;6.70;99.90;;;;;;5406275;26;20609;-74
2024/04/17 09:09:16;;;;;;;9.77;8.77;;;6.70;99.90;;;;;;5414104;26;20224;-74
2024/04/17 09:11:42;;;;;;;12.90;9.63;;;6.70;99.90;;;;;;5406131;26;20251;-75
2024/04/17 09:14:08;;;;;;;14.00;11.07;;;6.70;99.90;;;;;;5405688;26;20588;-74
2024/04/17 09:16:34;;;;;;;10.73;9.67;;;6.80;99.90;;;;;;5406182;26;20209;-75
2024/04/17 09:18:59;;;;;;;16.27;10.70;;;7.20;99.90;;;;;;5405582;26;20603;-75
2024/04/17 09:21:25;;;;;;;11.10;9.83;;;7.50;99.90;;;;;;5405846;26;20695;-74
2024/04/17 09:23:51;;;;;;;12.17;10.87;;;7.60;99.90;;;;;;5405592;26;20220;-74
2024/04/17 09:26:18;;;;;;;12.83;9.37;;;7.80;99.90;;;;;;5406043;26;20333;-74
2024/04/17 09:28:45;;;;;;;12.63;9.50;;;7.90;99.90;;;;;;5405559;26;20692;-74
2024/04/17 09:31:11;;;;;;;10.57;9.47;;;8.10;99.90;;;;;;5405539;26;20264;-75
2024/04/17 09:33:46;;;;;;;10.73;8.57;;;8.10;99.90;;;;;;5441590;26;20707;-74
2024/04/17 09:36:12;;;;;;;13.47;9.13;;;8.00;99.90;;;;;;5406127;26;20220;-74
2024/04/17 09:38:39;;;;;;;10.80;8.77;;;7.80;99.90;;;;;;5406434;26;20768;-74
2024/04/17 09:41:05;;;;;;;13.37;9.07;;;7.90;99.90;;;;;;5405592;26;20251;-74
2024/04/17 09:43:30;;;;;;;11.90;8.60;;;7.90;99.90;;;;;;5405784;26;20208;-74
2024/04/17 09:46:09;;;;;;;9.67;8.67;;;7.90;99.90;;;;;;5406039;26;20334;-74
2024/04/17 09:48:41;;;;;;;12.57;8.57;;;7.70;99.90;;;;;;5406007;26;20212;-74
2024/04/17 09:51:08;;;;;;;12.53;8.37;;;7.50;99.90;;;;;;5405751;26;20593;-74
2024/04/17 09:53:35;;;;;;;9.93;8.53;;;7.50;99.90;;;;;;5406014;26;20254;-74
2024/04/17 09:56:02;;;;;;;10.07;7.73;;;7.40;99.90;;;;;;5407857;26;20216;-75
2024/04/17 09:58:32;;;;;;;12.90;8.03;;;7.30;99.90;;;;;;5408099;26;20349;-74
2024/04/17 10:01:02;;;;;;;8.93;7.43;;;7.40;99.90;;;;;;5407907;26;20225;-74
2024/04/17 10:03:31;;;;;;;7.37;6.67;;;7.50;99.90;;;;;;5407420;26;20310;-75
2024/04/17 10:05:59;;;;;;;9.17;6.10;;;7.60;99.90;;;;;;5407158;26;20247;-75
2024/04/17 10:08:29;;;;;;;7.53;5.97;;;7.70;99.90;;;;;;5407531;26;20252;-74
2024/04/17 10:10:55;;;;;;;9.90;6.00;;;7.90;99.90;;;;;;5407278;26;20233;-74
2024/04/17 10:13:28;;;;;;;8.10;6.20;;;8.10;99.90;;;;;;5407534;26;20263;-74
2024/04/17 10:15:54;;;;;;;7.70;5.97;;;8.20;99.90;;;;;;5408040;26;20205;-75
2024/04/17 10:18:21;;;;;;;8.73;6.00;;;8.30;99.90;;;;;;5408199;26;20660;-74
2024/04/17 10:20:47;;;;;;;7.53;5.80;;;8.40;99.90;;;;;;5406989;26;20229;-74
2024/04/17 10:23:14;;;;;;;8.77;5.50;;;8.40;99.90;;;;;;5407800;26;20305;-74
2024/04/17 10:25:54;;;;;;;9.87;5.30;;;8.40;99.90;;;;;;5407844;26;20224;-74
2024/04/17 10:28:21;;;;;;;7.90;5.10;;;8.50;99.90;;;;;;5405251;26;20208;-74
2024/04/17 10:30:48;;;;;;;9.27;6.63;;;8.80;99.90;;;;;;5404650;26;20304;-74
2024/04/17 10:33:34;;;;;;;7.47;6.13;;;9.10;99.90;;;;;;5404275;26;20224;-74
2024/04/17 10:36:02;;;;;;;9.83;6.30;;;9.40;99.90;;;;;;5404947;26;20212;-75
2024/04/17 10:38:30;;;;;;;10.83;6.07;;;9.90;99.90;;;;;;5406064;26;20243;-74
2024/04/17 10:40:57;;;;;;;8.47;5.43;;;10.10;99.90;;;;;;5405400;26;20397;-75
2024/04/17 10:43:23;;;;;;;8.47;5.13;;;10.50;99.90;;;;;;5405348;26;20263;-74
2024/04/17 10:46:05;;;;;;;5.00;4.33;;;11.00;99.90;;;;;;5405663;26;20212;-74
2024/04/17 10:48:30;;;;;;;7.90;4.03;;;11.20;99.90;;;;;;5405190;26;20243;-76
2024/04/17 10:50:56;;;;;;;7.43;4.40;;;11.60;99.90;;;;;;5405294;26;20221;-75
2024/04/17 10:53:22;;;;;;;6.07;3.47;;;11.90;99.90;;;;;;5437014;26;20238;-74
2024/04/17 10:55:53;;;;;;;6.63;3.73;;;11.90;99.90;;;;;;5406198;26;20254;-74
2024/04/17 10:58:19;;;;;;;5.70;3.23;;;11.90;99.90;;;;;;5405322;26;20319;-75
2024/04/17 11:00:45;;;;;;;5.90;3.47;;;11.60;99.90;;;;;;5405168;26;20271;-74
2024/04/17 11:03:11;;;;;;;6.80;3.57;;;11.30;99.90;;;;;;5404807;26;20228;-73
2024/04/17 11:05:37;;;;;;;3.90;3.50;;;11.00;99.90;;;;;;5440060;26;20267;-73
2024/04/17 11:08:03;;;;;;;8.90;3.67;;;10.80;99.90;;;;;;5403758;26;20584;-74
2024/04/17 11:10:28;;;;;;;6.07;4.00;;;10.80;99.90;;;;;;5404946;26;20281;-75
2024/04/17 11:12:54;;;;;;;3.93;3.60;;;10.80;99.90;;;;;;5405508;26;20255;-75
2024/04/17 11:15:20;;;;;;;9.40;4.17;;;10.90;99.90;;;;;;5405556;26;20212;-75
2024/04/17 11:17:45;;;;;;;8.10;3.80;;;10.60;99.90;;;;;;5405778;26;20773;-75
2024/04/17 11:20:12;;;;;;;3.83;3.10;;;10.70;99.90;;;;;;5404684;26;20622;-75
2024/04/17 11:22:37;;;;;;;6.40;3.70;;;11.20;99.90;;;;;;5412943;26;20229;-75
2024/04/17 11:25:04;;;;;;;7.50;3.20;;;11.60;99.90;;;;;;5402743;26;20262;-76
2024/04/17 11:27:30;;;;;;;7.33;3.83;;;11.80;99.90;;;;;;5405382;26;20558;-75
2024/04/17 11:29:56;;;;;;;5.37;3.20;;;11.90;99.90;;;;;;5401412;26;20266;-75
2024/04/17 11:32:22;;;;;;;6.00;3.40;;;11.80;99.90;;;;;;5404821;26;20312;-75
2024/04/17 11:34:48;;;;;;;7.53;3.43;;;11.70;99.90;;;;;;5406495;26;20221;-76
2024/04/17 11:37:14;;;;;;;5.50;3.40;;;11.90;99.90;;;;;;5407385;26;20212;-75
2024/04/17 11:39:40;;;;;;;8.80;3.43;;;12.20;99.90;;;;;;5404203;26;20221;-76
2024/04/17 11:42:08;;;;;;;6.20;3.60;;;12.70;99.90;;;;;;5403872;26;20760;-76
2024/04/17 11:44:38;;;;;;;3.73;2.93;;;13.10;99.90;;;;;;5404734;26;20208;-75
2024/04/17 11:47:13;;;;;;;4.97;3.70;;;13.30;99.90;;;;;;5404869;26;20208;-75
2024/04/17 11:49:38;;;;;;;7.10;3.33;;;13.50;99.90;;;;;;5405053;26;20270;-75
2024/04/17 11:52:07;;;;;;;7.00;3.90;;;14.00;99.90;;;;;;5407664;26;20213;-75
2024/04/17 11:54:33;;;;;;;8.20;3.80;;;14.10;99.90;;;;;;5404586;26;20216;-76
2024/04/17 11:56:59;;;;;;;6.50;3.70;;;14.00;99.90;;;;;;5410908;26;20305;-76
2024/04/17 11:59:24;;;;;;;7.57;3.67;;;14.00;99.90;;;;;;5409831;26;20270;-75
2024/04/17 12:01:50;;;;;;;5.43;3.17;;;14.00;99.90;;;;;;5409223;26;20319;-75
2024/04/17 12:04:16;;;;;;;4.83;3.20;;;13.80;99.90;;;;;;5407682;26;20212;-76
2024/04/17 12:06:42;;;;;;;4.97;3.47;;;13.40;99.90;;;;;;5407906;26;20255;-73
2024/04/17 12:09:07;;;;;;;5.27;3.20;;;12.40;99.90;;;;;;5407357;26;20232;-75
2024/04/17 12:11:33;;;;;;;5.33;3.37;;;11.70;99.90;;;;;;5407482;26;20324;-76
2024/04/17 12:13:59;;;;;;;4.83;3.77;;;11.10;99.90;;;;;;5408927;26;20220;-76
2024/04/17 12:16:24;;;;;;;4.83;3.63;;;10.60;99.90;;;;;;5410350;26;20251;-74
2024/04/17 12:18:50;;;;;;;3.97;3.53;;;10.30;99.90;;;;;;5445014;26;20224;-74
2024/04/17 12:21:15;;;;;;;3.70;3.40;;;10.00;99.90;;;;;;5406225;26;20263;-76
2024/04/17 12:23:43;;;;;;;6.97;3.40;;;9.70;99.90;;;;;;5406540;26;20208;-75
2024/04/17 12:28:53;;;;;;;4.13;3.90;;;9.00;99.90;;;;;;5406601;26;20323;-74
2024/04/17 12:31:19;;;;;;;4.37;3.97;;;8.60;99.90;;;;;;5406377;26;20217;-75
2024/04/17 12:33:44;;;;;;;4.93;4.10;;;8.20;99.90;;;;;;5408415;26;20313;-74
2024/04/17 12:36:10;;;;;;;6.80;4.67;;;8.00;99.90;;;;;;5409136;26;20224;-74
2024/04/17 12:38:36;;;;;;;5.77;4.20;;;8.00;1.00;;;;;;5406167;26;20212;-74
2024/04/17 12:41:01;;;;;;;4.50;4.13;;;8.00;1.00;;;;;;5442761;26;20819;-75